createdAt,value
2019-04-05T00:02:04.642Z,84.96
2019-04-05T00:04:51.394Z,84.95
2019-04-05T00:07:38.226Z,84.82
2019-04-05T00:10:26.161Z,84.59
2019-04-05T00:13:14.300Z,83.29
2019-04-05T00:16:01.188Z,82.23
2019-04-05T00:18:51.712Z,82.93
2019-04-05T00:21:38.823Z,83.56
2019-04-05T00:24:26.377Z,82.49
2019-04-05T00:27:13.106Z,83.48
2019-04-05T00:30:01.109Z,83.93
2019-04-05T00:32:48.323Z,84.26
2019-04-05T00:35:35.441Z,84.86
2019-04-05T00:38:25.832Z,83.52
2019-04-05T00:41:13.232Z,84.11
2019-04-05T00:44:00.043Z,84.29
2019-04-05T00:46:46.762Z,84.58
2019-04-05T00:49:33.488Z,84.82
2019-04-05T00:52:20.338Z,85.06
2019-04-05T00:55:07.311Z,85.05
2019-04-05T00:57:54.697Z,84.96
2019-04-05T01:00:41.892Z,84.92
2019-04-05T01:03:29.106Z,85.06
2019-04-05T01:06:15.772Z,85.03
2019-04-05T01:09:02.928Z,83.53
2019-04-05T01:11:50.085Z,84.07
2019-04-05T01:14:36.792Z,84.30
2019-04-05T01:17:25.212Z,84.43
2019-04-05T01:20:11.349Z,84.74
2019-04-05T01:22:58.748Z,85.02
2019-04-05T01:28:51.840Z,85.49
2019-04-05T01:31:39.050Z,85.53
2019-04-05T01:34:25.953Z,85.37
2019-04-05T01:37:13.049Z,85.39
2019-04-05T01:39:59.896Z,85.39
2019-04-05T01:42:47.096Z,85.45
2019-04-05T01:45:34.521Z,83.92
2019-04-05T01:48:21.417Z,82.84
2019-04-05T01:51:11.413Z,83.77
2019-04-05T01:53:59.124Z,84.18
2019-04-05T01:56:46.268Z,84.05
2019-04-05T01:59:33.062Z,84.53
2019-04-05T02:02:19.984Z,84.84
2019-04-05T02:05:07.913Z,84.86
2019-04-05T02:07:54.575Z,84.87
2019-04-05T02:10:41.344Z,85.00
2019-04-05T02:13:28.672Z,84.96
2019-04-05T02:16:15.871Z,85.06
2019-04-05T02:19:02.987Z,85.02
2019-04-05T02:21:50.197Z,85.04
2019-04-05T02:24:36.910Z,84.98
2019-04-05T02:27:23.742Z,83.50
2019-04-05T02:30:11.140Z,82.27
2019-04-05T02:32:58.285Z,83.26
2019-04-05T02:35:45.479Z,82.02
2019-04-05T02:38:34.624Z,81.09
2019-04-05T02:41:21.651Z,82.10
2019-04-05T02:44:08.687Z,82.90
2019-04-05T02:46:55.781Z,83.31
2019-04-05T02:49:42.745Z,83.54
2019-04-05T02:52:29.988Z,81.99
2019-04-05T02:55:17.286Z,82.77
2019-04-05T02:58:03.992Z,83.25
2019-04-05T03:00:51.054Z,83.55
2019-04-05T03:03:38.387Z,83.63
2019-04-05T03:06:25.999Z,83.94
2019-04-05T03:09:12.924Z,84.01
2019-04-05T03:12:00.599Z,83.99
2019-04-05T03:14:47.678Z,84.06
2019-04-05T03:17:34.982Z,84.23
2019-04-05T03:20:21.776Z,84.02
2019-04-05T03:23:08.818Z,83.99
2019-04-05T03:25:56.242Z,83.87
2019-04-05T03:31:49.477Z,83.98
2019-04-05T03:34:36.199Z,83.89
2019-04-05T03:37:23.133Z,83.87
2019-04-05T03:40:10.008Z,83.92
2019-04-05T03:42:56.764Z,83.90
2019-04-05T03:45:43.430Z,83.74
2019-04-05T03:48:30.235Z,83.78
2019-04-05T03:51:17.434Z,83.93
2019-04-05T03:54:04.678Z,83.78
2019-04-05T03:56:51.382Z,83.99
2019-04-05T03:59:38.221Z,83.86
2019-04-05T04:02:25.487Z,84.07
2019-04-05T04:05:12.886Z,84.23
2019-04-05T04:07:59.637Z,82.66
2019-04-05T04:10:47.181Z,83.07
2019-04-05T04:13:34.075Z,83.39
2019-04-05T04:16:20.909Z,83.73
2019-04-05T04:19:08.174Z,83.90
2019-04-05T04:22:13.904Z,83.97
2019-04-05T04:25:01.588Z,83.99
2019-04-05T04:27:48.482Z,83.98
2019-04-05T04:30:35.668Z,84.12
2019-04-05T04:33:22.953Z,83.93
2019-04-05T04:36:12.895Z,83.82
2019-04-05T04:38:56.820Z,83.83
2019-04-05T04:41:43.509Z,83.64
2019-04-05T04:44:31.462Z,82.16
2019-04-05T04:47:26.538Z,82.99
2019-04-05T04:50:05.523Z,83.19
2019-04-05T04:52:53.624Z,83.64
2019-04-05T04:55:40.263Z,82.16
2019-04-05T04:58:27.058Z,82.78
2019-04-05T05:01:13.920Z,83.33
2019-04-05T05:04:01.009Z,81.72
2019-04-05T05:06:48.173Z,82.84
2019-04-05T05:09:35.262Z,83.37
2019-04-05T05:12:22.455Z,83.67
2019-04-05T05:15:09.659Z,84.02
2019-04-05T05:17:59.219Z,84.23
2019-04-05T05:20:46.211Z,84.33
2019-04-05T05:23:33.250Z,84.48
2019-04-05T05:26:20.003Z,84.73
2019-04-05T05:29:07.065Z,84.89
2019-04-05T05:31:54.280Z,83.15
2019-04-05T05:34:41.047Z,83.68
2019-04-05T05:37:29.008Z,82.10
2019-04-05T05:40:16.836Z,81.03
2019-04-05T05:43:03.623Z,82.18
2019-04-05T05:45:50.433Z,80.76
2019-04-05T05:48:37.286Z,81.99
2019-04-05T05:51:24.477Z,82.59
2019-04-05T05:54:11.979Z,83.11
2019-04-05T05:57:00.035Z,83.17
2019-04-05T06:03:00.513Z,83.77
2019-04-05T06:06:03.229Z,83.81
2019-04-05T06:08:37.283Z,83.74
2019-04-05T06:11:24.078Z,83.61
2019-04-05T06:14:11.195Z,83.53
2019-04-05T06:16:58.193Z,83.34
2019-04-05T06:19:45.057Z,83.42
2019-04-05T06:22:31.829Z,83.35
2019-04-05T06:25:18.877Z,83.26
2019-04-05T06:28:06.144Z,83.27
2019-04-05T06:30:52.866Z,83.22
2019-04-05T06:33:40.681Z,83.18
2019-04-05T06:36:27.494Z,83.19
2019-04-05T06:39:14.127Z,83.29
2019-04-05T06:42:00.945Z,83.25
2019-04-05T06:44:47.839Z,83.22
2019-04-05T06:47:34.935Z,83.23
2019-04-05T06:50:22.025Z,83.23
2019-04-05T06:53:08.854Z,83.06
2019-04-05T06:55:56.126Z,82.90
2019-04-05T06:58:46.196Z,82.76
2019-04-05T07:01:44.942Z,82.77
2019-04-05T07:04:32.034Z,82.70
2019-04-05T07:07:18.818Z,80.60
2019-04-05T07:10:06.022Z,81.15
2019-04-05T07:12:53.692Z,81.33
2019-04-05T07:15:40.742Z,79.35
2019-04-05T07:18:35.539Z,80.24
2019-04-05T07:21:17.175Z,80.46
2019-04-05T07:24:02.093Z,80.91
2019-04-05T07:26:49.290Z,81.14
2019-04-05T07:29:38.572Z,81.08
2019-04-05T07:32:25.584Z,78.77
2019-04-05T07:35:13.105Z,76.78
2019-04-05T07:38:00.341Z,78.26
2019-04-05T07:40:46.929Z,78.93
2019-04-05T07:43:34.652Z,79.32
2019-04-05T07:46:21.785Z,79.21
2019-04-05T07:49:08.784Z,79.36
2019-04-05T07:51:56.000Z,79.66
2019-04-05T07:54:42.837Z,77.12
2019-04-05T07:57:29.631Z,77.99
2019-04-05T08:00:38.021Z,78.15
2019-04-05T08:03:24.748Z,78.83
2019-04-05T08:06:12.034Z,79.15
2019-04-05T08:09:02.073Z,79.18
2019-04-05T08:11:46.341Z,79.33
2019-04-05T08:14:34.112Z,76.88
2019-04-05T08:17:21.020Z,77.95
2019-04-05T08:20:07.864Z,78.61
2019-04-05T08:22:55.674Z,78.78
2019-04-05T08:28:49.255Z,79.25
2019-04-05T08:31:36.254Z,79.40
2019-04-05T08:34:23.157Z,79.65
2019-04-05T08:37:10.190Z,79.62
2019-04-05T08:39:58.725Z,79.61
2019-04-05T08:42:45.473Z,79.04
2019-04-05T08:45:32.201Z,78.87
2019-04-05T08:48:19.154Z,78.89
2019-04-05T08:51:05.742Z,78.75
2019-04-05T08:54:07.126Z,78.66
2019-04-05T09:00:01.214Z,78.96
2019-04-05T09:03:02.956Z,78.60
2019-04-05T09:08:55.476Z,78.79
2019-04-05T09:11:42.702Z,78.58
2019-04-05T09:14:30.526Z,78.04
2019-04-05T09:17:17.691Z,77.75
2019-04-05T09:20:07.503Z,77.63
2019-04-05T09:22:54.330Z,77.54
2019-04-05T09:25:41.448Z,77.27
2019-04-05T09:28:28.754Z,77.36
2019-04-05T09:31:15.782Z,76.98
2019-04-05T09:34:02.896Z,76.90
2019-04-05T09:36:49.806Z,77.31
2019-04-05T09:39:36.799Z,77.54
2019-04-05T09:42:23.833Z,77.71
2019-04-05T09:45:10.617Z,77.52
2019-04-05T09:47:57.424Z,77.78
2019-04-05T09:50:58.701Z,77.43
2019-04-05T09:53:45.600Z,77.40
2019-04-05T09:56:33.511Z,77.17
2019-04-05T09:59:22.447Z,76.63
2019-04-05T10:02:09.005Z,76.80
2019-04-05T10:04:55.859Z,76.33
2019-04-05T10:07:54.175Z,72.30
2019-04-05T10:10:30.359Z,73.77
2019-04-05T10:13:17.411Z,74.44
2019-04-05T10:16:04.073Z,74.39
2019-04-05T10:18:51.679Z,74.55
2019-04-05T10:21:38.476Z,73.84
2019-04-05T10:24:27.125Z,73.41
2019-04-05T10:30:20.196Z,71.87
2019-04-05T10:33:08.022Z,71.33
2019-04-05T10:35:55.077Z,70.82
2019-04-05T10:38:41.841Z,70.69
2019-04-05T10:41:29.282Z,70.00
2019-04-05T10:44:16.586Z,69.99
2019-04-05T10:47:03.635Z,70.00
2019-04-05T10:50:02.505Z,69.93
2019-04-05T10:55:45.642Z,69.38
2019-04-05T10:58:43.313Z,68.92
2019-04-05T11:01:32.767Z,68.78
2019-04-05T11:04:19.653Z,68.73
2019-04-05T11:07:06.741Z,68.83
2019-04-05T11:09:53.781Z,68.92
2019-04-05T11:12:40.814Z,69.21
2019-04-05T11:18:34.281Z,70.17
2019-04-05T11:21:21.123Z,65.20
2019-04-05T11:24:08.186Z,67.01
2019-04-05T11:26:55.274Z,67.83
2019-04-05T11:29:42.434Z,67.91
2019-04-05T11:32:29.250Z,68.54
2019-04-05T11:35:16.419Z,68.98
2019-04-05T11:38:03.273Z,69.70
2019-04-05T11:43:58.498Z,69.00
2019-04-05T11:46:44.919Z,69.55
2019-04-05T11:49:32.799Z,68.51
2019-04-05T11:55:26.375Z,67.68
2019-04-05T11:58:13.605Z,66.88
2019-04-05T12:01:15.764Z,66.89
2019-04-05T12:04:02.424Z,65.83
2019-04-05T12:06:51.761Z,60.00
2019-04-05T12:09:39.523Z,62.18
2019-04-05T12:12:26.900Z,63.29
2019-04-05T12:15:13.864Z,63.55
2019-04-05T12:18:04.236Z,63.98
2019-04-05T12:20:58.999Z,62.99
2019-04-05T12:23:35.454Z,63.60
2019-04-05T12:26:22.991Z,63.41
2019-04-05T12:29:10.252Z,63.31
2019-04-05T12:31:56.915Z,62.87
2019-04-05T12:34:43.672Z,63.29
2019-04-05T12:37:30.523Z,58.35
2019-04-05T12:40:17.255Z,61.41
2019-04-05T12:43:04.080Z,61.96
2019-04-05T12:45:51.588Z,55.86
2019-04-05T12:48:38.678Z,59.70
2019-04-05T12:51:25.793Z,61.19
2019-04-05T12:54:13.012Z,61.57
2019-04-05T12:57:00.384Z,61.23
2019-04-05T13:00:01.395Z,54.36
2019-04-05T13:02:50.455Z,58.07
2019-04-05T13:05:35.616Z,58.97
2019-04-05T13:08:23.652Z,57.90
2019-04-05T13:11:10.134Z,57.44
2019-04-05T13:13:57.670Z,57.78
2019-04-05T13:16:44.391Z,57.79
2019-04-05T13:22:41.388Z,55.89
2019-04-05T13:31:41.723Z,55.28
2019-04-05T13:37:34.601Z,55.71
2019-04-05T13:40:21.597Z,56.34
2019-04-05T13:43:08.869Z,56.13
2019-04-05T13:45:55.645Z,50.76
2019-04-05T13:48:42.231Z,53.87
2019-04-05T13:51:31.805Z,55.12
2019-04-05T13:54:15.971Z,55.80
2019-04-05T13:57:03.174Z,56.50
2019-04-05T13:59:49.801Z,56.04
2019-04-05T14:02:36.995Z,56.01
2019-04-05T14:05:24.185Z,55.49
2019-04-05T14:08:25.806Z,49.15
2019-04-05T14:11:13.199Z,53.62
2019-04-05T14:14:00.523Z,49.28
2019-04-05T14:16:47.740Z,53.47
2019-04-05T14:22:40.571Z,55.09
2019-04-05T14:25:30.089Z,55.80
2019-04-05T14:28:14.469Z,56.56
2019-04-05T14:31:02.962Z,56.38
2019-04-05T14:33:50.390Z,56.27
2019-04-05T14:36:37.396Z,55.69
2019-04-05T14:39:24.035Z,55.67
2019-04-05T14:42:14.459Z,56.15
2019-04-05T14:44:59.048Z,51.17
2019-04-05T14:47:46.331Z,54.24
2019-04-05T14:50:33.589Z,50.80
2019-04-05T14:53:20.825Z,54.33
2019-04-05T14:56:07.849Z,55.13
2019-04-05T14:58:54.561Z,51.31
2019-04-05T15:01:41.429Z,53.60
2019-04-05T15:04:28.572Z,54.92
2019-04-05T15:07:15.325Z,54.78
2019-04-05T15:10:03.895Z,50.28
2019-04-05T15:12:49.478Z,53.50
2019-04-05T15:15:36.573Z,53.98
2019-04-05T15:21:29.427Z,53.84
2019-04-05T15:24:17.188Z,53.96
2019-04-05T15:27:03.500Z,54.47
2019-04-05T15:29:50.304Z,54.58
2019-04-05T15:35:43.139Z,54.90
2019-04-05T15:38:31.753Z,56.15
2019-04-05T15:41:16.913Z,55.81
2019-04-05T15:44:05.401Z,54.83
2019-04-05T15:46:50.857Z,55.09
2019-04-05T15:49:37.541Z,54.83
2019-04-05T15:52:28.228Z,55.32
2019-04-05T15:55:11.863Z,55.46
2019-04-05T15:57:59.317Z,50.49
2019-04-05T16:00:46.297Z,52.40
2019-04-05T16:03:33.162Z,52.98
2019-04-05T16:06:19.997Z,52.80
2019-04-05T16:09:07.021Z,52.90
2019-04-05T16:11:54.386Z,52.39
2019-04-05T16:14:41.337Z,52.70
2019-04-05T16:17:28.718Z,53.35
2019-04-05T16:20:15.884Z,49.16
2019-04-05T16:23:02.684Z,52.29
2019-04-05T16:25:49.726Z,53.50
2019-04-05T16:28:36.516Z,54.06
2019-04-05T16:31:23.989Z,54.59
2019-04-05T16:34:11.177Z,51.14
2019-04-05T16:36:58.317Z,54.07
2019-04-05T16:39:45.454Z,50.91
2019-04-05T16:42:32.860Z,53.58
2019-04-05T16:45:20.048Z,54.26
2019-04-05T16:51:13.388Z,56.01
2019-04-05T17:00:13.958Z,57.56
2019-04-05T17:03:01.309Z,57.99
2019-04-05T17:05:48.735Z,55.74
2019-04-05T17:08:35.877Z,58.22
2019-04-05T17:11:25.623Z,59.32
2019-04-05T17:14:12.503Z,60.29
2019-04-05T17:16:59.752Z,61.04
2019-04-05T17:22:58.262Z,62.34
2019-04-05T17:25:40.885Z,63.01
2019-04-05T17:28:27.567Z,62.82
2019-04-05T17:31:14.699Z,63.34
2019-04-05T17:34:01.722Z,63.82
2019-04-05T17:36:48.347Z,64.53
2019-04-05T17:39:37.403Z,64.76
2019-04-05T17:42:26.617Z,65.38
2019-04-05T17:45:13.632Z,65.97
2019-04-05T17:48:00.721Z,66.18
2019-04-05T17:53:54.451Z,66.88
2019-04-05T17:56:42.122Z,67.86
2019-04-05T17:59:30.121Z,68.12
2019-04-05T18:02:31.996Z,68.44
2019-04-05T18:05:18.799Z,69.16
2019-04-05T18:08:06.004Z,68.90
2019-04-05T18:10:53.046Z,69.28
2019-04-05T18:13:41.077Z,69.67
2019-04-05T18:16:28.198Z,68.13
2019-04-05T18:19:15.047Z,70.08
2019-04-05T18:22:01.869Z,68.97
2019-04-05T18:24:48.541Z,70.24
2019-04-05T18:27:35.917Z,70.75
2019-04-05T18:30:22.936Z,71.76
2019-04-05T18:33:10.261Z,72.08
2019-04-05T18:39:08.418Z,72.76
2019-04-05T18:41:55.476Z,73.08
2019-04-05T18:44:42.177Z,71.74
2019-04-05T18:47:29.345Z,72.98
2019-04-05T18:53:36.759Z,71.09
2019-04-05T18:56:10.944Z,73.36
2019-04-05T19:05:10.692Z,75.27
2019-04-05T19:17:23.771Z,76.25
2019-04-05T19:20:04.170Z,76.73
2019-04-05T19:22:51.124Z,76.97
2019-04-05T19:25:38.013Z,77.04
2019-04-05T19:28:25.139Z,77.20
2019-04-05T19:54:01.212Z,79.51
2019-04-05T19:59:48.596Z,81.01
2019-04-05T20:02:35.842Z,81.93
2019-04-05T20:05:22.523Z,82.13
2019-04-05T20:08:09.168Z,82.17
2019-04-05T20:14:16.588Z,82.77
2019-04-05T20:20:10.436Z,82.93
2019-04-05T20:22:57.887Z,83.10
2019-04-05T20:25:44.749Z,83.37
2019-04-05T20:28:46.729Z,83.39
2019-04-05T20:31:33.898Z,83.80
2019-04-05T20:34:21.225Z,83.41
2019-04-05T20:37:22.533Z,83.40
2019-04-05T20:40:10.035Z,83.16
2019-04-05T20:42:56.838Z,81.37
2019-04-05T20:55:01.946Z,83.42
2019-04-05T20:57:49.060Z,83.32
2019-04-05T21:00:36.198Z,81.69
2019-04-05T21:03:23.701Z,82.73
2019-04-05T21:06:10.845Z,81.14
2019-04-05T21:27:34.934Z,83.20
2019-04-05T21:43:00.340Z,83.88
2019-04-05T21:55:06.808Z,85.11
2019-04-05T21:57:53.330Z,85.17
2019-04-05T22:00:49.641Z,85.33
2019-04-05T22:03:51.451Z,85.61
2019-04-05T22:09:45.230Z,85.55
2019-04-05T22:12:32.243Z,85.77
2019-04-05T22:15:19.364Z,86.07
2019-04-05T22:24:22.165Z,85.01
2019-04-05T22:27:09.784Z,85.66
2019-04-05T22:30:11.183Z,85.86
2019-04-05T22:32:59.064Z,86.29
2019-04-05T22:35:46.055Z,86.19
2019-04-05T22:38:34.541Z,84.68
2019-04-05T22:41:24.719Z,85.16
2019-04-05T23:15:27.441Z,87.31
2019-04-05T23:24:40.704Z,87.25
2019-04-05T23:43:12.587Z,86.52
2019-04-05T23:45:59.357Z,86.63
